Time;durP1;ratioP1;P1;durP2;ratioP2;P2;SDS_P1;SDS_P2;PMS_P1;PMS_P2;Temp;Humidity;BMP_temperature;BMP_pressure;BME280_temperature;BME280_humidity;BME280_pressure;Samples;Min_cycle;Max_cycle;Signal;HPM_P1;HPM_P2
2021/12/28 00:01:49;;;;;;;31.90;22.50;;;;;;;1.94;81.18;99677.97;5078902;28;20223;-66
2021/12/28 00:04:15;;;;;;;29.50;22.27;;;;;;;1.55;83.79;99664.91;5079506;28;20179;-66
2021/12/28 00:06:40;;;;;;;32.80;22.63;;;;;;;1.61;83.00;99678.78;5079093;28;20200;-66
2021/12/28 00:09:05;;;;;;;31.47;23.50;;;;;;;1.53;83.68;99672.56;5078787;28;20216;-67
2021/12/28 00:11:30;;;;;;;28.20;21.00;;;;;;;1.23;84.12;99667.38;5079691;28;20495;-66
2021/12/28 00:14:01;;;;;;;34.33;23.30;;;;;;;1.78;82.76;99675.81;5081482;28;20254;-66
2021/12/28 00:16:33;;;;;;;30.60;22.13;;;;;;;1.45;84.16;99663.78;5080681;28;20267;-67
2021/12/28 00:19:00;;;;;;;33.47;22.13;;;;;;;1.82;82.21;99654.53;5079666;28;20433;-66
2021/12/28 00:21:25;;;;;;;30.80;22.30;;;;;;;1.49;84.44;99660.47;5077728;28;20407;-66
2021/12/28 00:23:51;;;;;;;27.57;21.33;;;;;;;1.61;83.98;99663.38;5078785;28;20457;-66
2021/12/28 00:26:16;;;;;;;31.70;23.00;;;;;;;1.72;82.95;99657.66;5078565;28;20550;-66
2021/12/28 00:28:43;;;;;;;29.50;22.63;;;;;;;1.41;84.81;99649.97;5078744;28;20169;-67
2021/12/28 00:31:11;;;;;;;31.27;21.60;;;;;;;1.40;84.83;99647.34;5079292;28;20226;-67
2021/12/28 00:33:36;;;;;;;31.57;22.10;;;;;;;1.52;83.90;99640.84;5078966;28;20450;-67
2021/12/28 00:36:02;;;;;;;28.43;20.80;;;;;;;1.18;85.04;99657.84;5084613;28;20809;-69
2021/12/28 00:38:27;;;;;;;32.50;24.30;;;;;;;1.74;83.74;99645.72;5085362;28;20179;-67
2021/12/28 00:40:56;;;;;;;32.83;22.50;;;;;;;1.37;84.74;99644.69;5079468;28;20247;-68
2021/12/28 00:43:22;;;;;;;29.07;21.90;;;;;;;1.54;84.41;99645.19;5078087;28;20225;-66
2021/12/28 00:45:48;;;;;;;30.80;22.93;;;;;;;1.60;83.69;99646.22;5079438;28;20396;-66
2021/12/28 00:48:13;;;;;;;34.30;24.20;;;;;;;1.94;83.01;99642.00;5078642;28;20256;-67
2021/12/28 00:50:39;;;;;;;27.00;21.73;;;;;;;1.68;84.20;99633.59;5077676;28;20449;-66
2021/12/28 00:53:05;;;;;;;30.60;22.97;;;;;;;1.78;83.70;99627.84;5077406;28;20463;-66
2021/12/28 00:55:30;;;;;;;31.27;22.73;;;;;;;1.75;83.60;99638.06;5078352;28;20271;-66
2021/12/28 00:57:55;;;;;;;33.03;23.10;;;;;;;1.50;84.50;99634.81;5078868;28;20173;-67
2021/12/28 01:00:23;;;;;;;34.90;23.40;;;;;;;1.44;85.03;99632.06;5078385;28;20214;-67
2021/12/28 01:02:49;;;;;;;30.30;22.33;;;;;;;1.64;83.34;99624.91;5078393;28;20479;-67
2021/12/28 01:05:15;;;;;;;32.93;23.20;;;;;;;1.70;83.88;99624.22;5079064;28;20522;-67
2021/12/28 01:07:40;;;;;;;34.63;23.30;;;;;;;1.71;83.86;99615.69;5078567;28;20552;-67
2021/12/28 01:10:09;;;;;;;27.27;20.80;;;;;;;1.52;84.85;99612.59;5078691;28;20310;-66
2021/12/28 01:12:35;;;;;;;31.73;21.93;;;;;;;1.66;83.72;99609.53;5078861;28;20449;-66
2021/12/28 01:15:00;;;;;;;33.33;23.00;;;;;;;1.49;85.00;99620.22;5077568;28;20407;-66
2021/12/28 01:17:26;;;;;;;32.43;23.13;;;;;;;1.76;84.25;99610.66;5078096;28;20165;-66
2021/12/28 01:19:51;;;;;;;30.30;22.30;;;;;;;1.59;84.85;99615.34;5078957;28;20240;-68
2021/12/28 01:22:17;;;;;;;26.87;21.03;;;;;;;1.39;85.38;99609.66;5078084;28;20201;-66
2021/12/28 01:24:42;;;;;;;34.03;23.57;;;;;;;1.50;85.29;99610.81;5078391;28;20164;-66
2021/12/28 01:27:07;;;;;;;28.67;22.43;;;;;;;1.65;84.09;99608.69;5078956;28;20222;-67
2021/12/28 01:29:33;;;;;;;29.13;21.20;;;;;;;1.61;84.24;99601.72;5078110;28;20176;-66
2021/12/28 01:31:59;;;;;;;26.23;19.60;;;;;;;1.45;85.01;99602.13;5077820;28;20183;-67
2021/12/28 01:34:24;;;;;;;32.20;22.00;;;;;;;1.44;84.93;99611.53;5078437;28;20161;-65
2021/12/28 01:36:50;;;;;;;34.67;22.90;;;;;;;1.52;84.55;99604.03;5077911;28;20419;-66
2021/12/28 01:39:15;;;;;;;32.30;24.00;;;;;;;1.72;83.97;99604.59;5077944;28;20234;-66
2021/12/28 01:41:41;;;;;;;30.03;21.03;;;;;;;1.52;85.11;99606.59;5078269;28;20168;-66
2021/12/28 01:44:09;;;;;;;29.30;21.40;;;;;;;1.42;85.29;99604.59;5076972;28;20539;-66
2021/12/28 01:46:35;;;;;;;26.00;19.47;;;;;;;1.52;84.93;99604.03;5077051;28;20408;-66
2021/12/28 01:49:01;;;;;;;36.07;23.20;;;;;;;1.70;84.80;99593.38;5078308;28;20467;-66
2021/12/28 01:51:27;;;;;;;36.63;23.67;;;;;;;1.58;85.11;99609.31;5077665;28;20789;-66
2021/12/28 01:53:57;;;;;;;27.47;19.00;;;;;;;1.20;85.26;99603.97;5077603;28;20454;-66
2021/12/28 01:56:26;;;;;;;27.63;22.63;;;;;;;1.79;84.41;99600.47;5078482;28;20431;-66
2021/12/28 01:58:53;;;;;;;30.77;21.60;;;;;;;1.45;85.07;99592.72;5077914;28;20407;-66
2021/12/28 02:01:18;;;;;;;33.07;21.60;;;;;;;1.59;85.33;99590.53;5077835;28;20415;-67
2021/12/28 02:03:44;;;;;;;31.73;21.10;;;;;;;1.40;85.54;99588.28;5082674;28;20453;-66
2021/12/28 02:06:10;;;;;;;28.43;20.07;;;;;;;1.45;84.92;99581.59;5080591;28;20169;-65
2021/12/28 02:08:37;;;;;;;29.73;21.10;;;;;;;1.40;85.04;99580.59;5080380;28;20407;-65
2021/12/28 02:11:03;;;;;;;30.20;23.10;;;;;;;1.70;83.82;99579.69;5081492;28;20464;-66
2021/12/28 02:13:28;;;;;;;32.33;24.87;;;;;;;1.78;83.44;99583.31;5080888;28;20674;-66
2021/12/28 02:15:54;;;;;;;29.83;21.90;;;;;;;1.67;84.97;99570.19;5080898;28;20418;-66
2021/12/28 02:18:21;;;;;;;30.17;23.03;;;;;;;1.52;84.64;99573.22;5082446;28;20169;-66
2021/12/28 02:20:48;;;;;;;37.03;22.70;;;;;;;1.51;84.55;99574.03;5082221;28;20415;-65
2021/12/28 02:23:14;;;;;;;31.87;23.30;;;;;;;1.84;84.79;99552.63;5081271;28;20504;-66
2021/12/28 02:25:39;;;;;;;29.60;22.50;;;;;;;1.69;84.31;99555.66;5081491;28;20399;-65
2021/12/28 02:28:06;;;;;;;30.57;21.93;;;;;;;1.79;83.76;99546.53;5080671;28;20415;-67
2021/12/28 02:30:33;;;;;;;28.93;20.87;;;;;;;1.53;84.64;99554.41;5080428;28;20442;-66
2021/12/28 02:32:59;;;;;;;31.37;23.70;;;;;;;1.69;84.70;99540.25;5081083;28;20407;-66
2021/12/28 02:35:25;;;;;;;35.10;23.23;;;;;;;1.65;85.03;99551.28;5080568;28;20419;-66
2021/12/28 02:37:51;;;;;;;27.37;21.40;;;;;;;1.70;84.44;99559.13;5080448;28;20411;-65
2021/12/28 02:40:20;;;;;;;29.50;23.20;;;;;;;1.77;84.11;99553.31;5080241;28;20502;-66
2021/12/28 02:42:46;;;;;;;27.10;20.03;;;;;;;1.66;84.51;99548.78;5080236;28;20833;-66
2021/12/28 02:45:23;;;;;;;28.00;21.53;;;;;;;1.74;83.68;99548.97;5080367;28;20407;-66
2021/12/28 02:47:48;;;;;;;30.97;22.30;;;;;;;1.67;83.79;99550.50;5080405;28;20500;-66
2021/12/28 02:50:27;;;;;;;29.87;21.23;;;;;;;1.78;84.45;99537.06;5080632;28;20411;-66
2021/12/28 02:52:53;;;;;;;26.47;19.33;;;;;;;1.58;84.15;99539.97;5080100;28;20225;-66
2021/12/28 02:55:22;;;;;;;29.70;22.73;;;;;;;1.82;83.51;99541.44;5079498;28;20443;-66
2021/12/28 02:57:50;;;;;;;30.23;22.90;;;;;;;1.74;83.80;99537.81;5080150;28;20820;-66
2021/12/28 03:00:29;;;;;;;27.13;21.50;;;;;;;1.89;83.72;99550.19;5081991;28;20412;-65
2021/12/28 03:02:55;;;;;;;31.47;22.60;;;;;;;1.91;83.38;99549.41;5079862;28;20459;-66
2021/12/28 03:05:20;;;;;;;31.23;21.30;;;;;;;1.80;83.85;99550.81;5080310;28;20415;-66
2021/12/28 03:07:46;;;;;;;27.70;21.73;;;;;;;1.82;84.00;99554.31;5080577;28;20797;-66
2021/12/28 03:10:11;;;;;;;32.50;22.83;;;;;;;1.84;83.38;99550.94;5080007;28;20185;-66
2021/12/28 03:12:36;;;;;;;27.80;21.70;;;;;;;1.82;82.87;99549.16;5079631;28;20188;-64
2021/12/28 03:15:02;;;;;;;30.77;23.43;;;;;;;1.90;83.72;99550.22;5080407;28;20276;-65
2021/12/28 03:17:27;;;;;;;33.40;21.03;;;;;;;1.65;84.57;99543.56;5080032;28;20184;-67
2021/12/28 03:19:52;;;;;;;31.03;22.60;;;;;;;1.70;84.31;99539.44;5080075;28;20191;-66
2021/12/28 03:22:18;;;;;;;29.97;21.87;;;;;;;1.65;84.35;99549.59;5080148;28;20196;-66
2021/12/28 03:24:43;;;;;;;30.87;21.80;;;;;;;1.68;83.94;99536.81;5079732;28;20173;-65
2021/12/28 03:27:08;;;;;;;30.67;22.30;;;;;;;1.89;83.50;99532.19;5079571;28;20181;-66
2021/12/28 03:29:34;;;;;;;31.20;22.97;;;;;;;1.84;83.42;99529.50;5080474;28;20480;-67
2021/12/28 03:31:59;;;;;;;32.93;22.17;;;;;;;1.54;84.95;99524.44;5090824;28;20199;-65
2021/12/28 03:34:24;;;;;;;31.70;23.20;;;;;;;1.76;83.35;99524.19;5085167;28;20230;-66
2021/12/28 03:36:50;;;;;;;31.23;22.97;;;;;;;1.87;83.07;99513.28;5080337;28;20180;-66
2021/12/28 03:39:15;;;;;;;34.67;24.40;;;;;;;1.88;83.15;99499.63;5079755;28;20196;-66
2021/12/28 03:41:40;;;;;;;31.87;22.07;;;;;;;1.47;84.25;99503.72;5078682;28;20168;-66
2021/12/28 03:44:06;;;;;;;31.53;23.57;;;;;;;1.71;83.79;99496.66;5079622;28;20546;-66
2021/12/28 03:46:31;;;;;;;28.10;21.00;;;;;;;1.39;84.29;99501.81;5079206;28;20177;-66
2021/12/28 03:48:57;;;;;;;35.17;25.67;;;;;;;1.50;85.39;99497.81;5079130;28;20555;-65
2021/12/28 03:51:22;;;;;;;31.17;22.20;;;;;;;1.23;86.02;99483.44;5079829;28;20165;-65
2021/12/28 03:53:48;;;;;;;35.50;24.60;;;;;;;1.82;84.50;99478.06;5078810;28;20224;-67
2021/12/28 03:56:14;;;;;;;34.07;25.07;;;;;;;1.56;85.63;99480.00;5079121;28;20196;-65
2021/12/28 03:58:40;;;;;;;34.40;23.00;;;;;;;1.46;85.16;99471.19;5079453;28;20189;-66
2021/12/28 04:01:07;;;;;;;35.20;24.40;;;;;;;1.71;84.10;99466.66;5078866;28;20469;-66
2021/12/28 04:03:33;;;;;;;31.87;23.63;;;;;;;1.71;84.43;99463.25;5078570;28;20477;-66
2021/12/28 04:06:04;;;;;;;32.17;24.10;;;;;;;1.60;84.56;99468.97;5079273;28;20785;-66
2021/12/28 04:08:29;;;;;;;35.57;24.70;;;;;;;1.60;84.55;99463.84;5078703;28;20173;-66
2021/12/28 04:11:02;;;;;;;34.83;23.83;;;;;;;1.50;85.25;99462.75;5078616;28;20854;-66
2021/12/28 04:13:28;;;;;;;39.07;24.70;;;;;;;1.74;83.98;99466.75;5078470;28;20169;-66
2021/12/28 04:15:53;;;;;;;31.83;23.93;;;;;;;1.52;83.68;99461.06;5078796;28;20433;-66
2021/12/28 04:18:19;;;;;;;35.13;24.10;;;;;;;1.66;84.24;99460.53;5079525;28;20191;-66
2021/12/28 04:20:44;;;;;;;32.00;23.40;;;;;;;1.75;83.69;99462.50;5078598;28;20558;-66
2021/12/28 04:23:10;;;;;;;32.57;24.60;;;;;;;1.51;84.04;99463.59;5078415;28;20212;-67
2021/12/28 04:25:35;;;;;;;33.27;24.07;;;;;;;1.53;84.71;99472.22;5079258;28;20168;-68
2021/12/28 04:28:01;;;;;;;34.03;24.70;;;;;;;1.49;84.62;99457.56;5079578;28;20169;-66
2021/12/28 04:30:26;;;;;;;29.90;22.73;;;;;;;1.50;85.34;99446.44;5079508;28;20173;-65
2021/12/28 04:32:51;;;;;;;34.13;24.97;;;;;;;1.63;84.45;99447.63;5080401;28;20168;-65
2021/12/28 04:35:17;;;;;;;32.30;23.60;;;;;;;1.62;84.19;99444.16;5078931;28;20177;-65
2021/12/28 04:37:42;;;;;;;28.23;20.90;;;;;;;1.48;84.33;99438.69;5078327;28;20180;-66
2021/12/28 04:40:09;;;;;;;27.23;19.60;;;;;;;1.18;86.24;99449.91;5078768;28;20276;-65
2021/12/28 04:42:34;;;;;;;33.93;23.03;;;;;;;1.46;85.31;99455.78;5078003;28;20236;-66
2021/12/28 04:45:00;;;;;;;33.40;24.57;;;;;;;1.42;85.37;99442.81;5078505;28;20465;-66
2021/12/28 04:47:25;;;;;;;36.80;25.10;;;;;;;1.31;85.14;99440.84;5078939;28;20493;-65
2021/12/28 04:49:50;;;;;;;34.30;23.60;;;;;;;1.26;86.65;99437.28;5078320;28;20652;-67
2021/12/28 04:52:16;;;;;;;32.33;24.47;;;;;;;1.39;85.87;99427.34;5077805;28;20253;-66
2021/12/28 04:54:41;;;;;;;35.27;23.97;;;;;;;1.36;85.72;99428.13;5078483;28;20193;-66
2021/12/28 04:57:07;;;;;;;36.60;24.07;;;;;;;1.47;85.76;99420.69;5078771;28;20208;-65
2021/12/28 04:59:32;;;;;;;34.57;24.57;;;;;;;1.51;85.53;99431.06;5083750;28;20181;-66
2021/12/28 05:01:57;;;;;;;33.17;23.40;;;;;;;1.67;85.42;99429.75;5087272;28;20196;-66
2021/12/28 05:04:23;;;;;;;32.00;24.00;;;;;;;1.44;85.91;99425.75;5082307;28;20177;-66
2021/12/28 05:06:48;;;;;;;34.03;24.40;;;;;;;1.56;85.15;99431.19;5078684;28;20186;-65
2021/12/28 05:09:18;;;;;;;31.37;24.23;;;;;;;1.62;85.00;99436.47;5078971;28;20177;-65
2021/12/28 05:11:43;;;;;;;37.70;24.37;;;;;;;1.65;84.64;99428.84;5078252;28;20169;-66
2021/12/28 05:14:09;;;;;;;35.47;25.10;;;;;;;1.58;85.23;99419.25;5078225;28;20446;-65
2021/12/28 05:16:35;;;;;;;32.17;22.47;;;;;;;1.57;84.65;99432.94;5078268;28;20165;-66
2021/12/28 05:19:02;;;;;;;30.57;23.43;;;;;;;1.61;85.05;99410.75;5078355;28;20169;-66
2021/12/28 05:21:28;;;;;;;36.83;27.27;;;;;;;1.87;84.81;99410.50;5077920;28;20172;-66
2021/12/28 05:23:53;;;;;;;31.67;23.73;;;;;;;1.66;85.47;99417.75;5078109;28;20855;-66
2021/12/28 05:26:18;;;;;;;34.20;24.60;;;;;;;1.70;84.84;99407.53;5077924;28;20537;-66
2021/12/28 05:28:44;;;;;;;34.53;23.43;;;;;;;1.74;84.69;99410.22;5060670;28;20173;-67
2021/12/28 05:31:10;;;;;;;35.73;25.33;;;;;;;1.51;85.33;99420.78;5078280;28;20196;-66
2021/12/28 05:33:35;;;;;;;30.70;22.83;;;;;;;1.67;85.24;99404.06;5077196;28;20187;-66
2021/12/28 05:36:01;;;;;;;36.73;24.37;;;;;;;1.44;86.19;99411.22;5077677;28;20415;-66
2021/12/28 05:38:26;;;;;;;33.37;24.80;;;;;;;1.62;85.90;99403.06;5081977;28;20246;-66
2021/12/28 05:40:51;;;;;;;35.23;24.50;;;;;;;1.56;85.81;99405.50;5081604;28;20572;-65
2021/12/28 05:43:17;;;;;;;35.83;26.20;;;;;;;1.79;84.83;99405.19;5081337;28;20244;-66
2021/12/28 05:45:45;;;;;;;32.53;24.70;;;;;;;1.69;84.73;99409.22;5082055;28;20165;-66
2021/12/28 05:48:11;;;;;;;34.40;25.00;;;;;;;1.82;85.15;99411.25;5081560;28;20216;-66
2021/12/28 05:50:37;;;;;;;29.70;23.80;;;;;;;1.83;84.03;99405.28;5081501;28;20419;-65
2021/12/28 05:53:03;;;;;;;33.90;25.00;;;;;;;1.92;85.00;99404.66;5080936;28;20286;-66
2021/12/28 05:55:28;;;;;;;32.40;23.30;;;;;;;2.06;83.81;99402.38;5081568;28;20447;-65
2021/12/28 05:57:53;;;;;;;33.57;24.27;;;;;;;2.09;83.50;99396.44;5082113;28;20177;-66
2021/12/28 06:00:19;;;;;;;32.37;22.23;;;;;;;2.00;84.12;99397.97;5081259;28;20439;-67
2021/12/28 06:02:45;;;;;;;31.57;23.03;;;;;;;1.92;84.38;99403.75;5081282;28;20208;-66
2021/12/28 06:05:10;;;;;;;33.70;23.90;;;;;;;2.19;84.23;99394.13;5081710;28;20203;-66
2021/12/28 06:07:36;;;;;;;30.83;23.20;;;;;;;2.27;83.74;99395.97;5081067;28;20453;-67
2021/12/28 06:10:02;;;;;;;27.33;21.40;;;;;;;1.81;84.91;99396.69;5081021;28;20177;-66
2021/12/28 06:12:28;;;;;;;32.20;23.03;;;;;;;2.18;84.25;99381.22;5081468;28;20169;-65
2021/12/28 06:14:53;;;;;;;32.47;24.50;;;;;;;1.91;85.14;99392.63;5081036;28;20427;-67
2021/12/28 06:17:19;;;;;;;32.83;23.30;;;;;;;1.81;86.07;99413.78;5081107;28;20416;-67
2021/12/28 06:19:44;;;;;;;29.33;23.10;;;;;;;2.01;85.79;99407.41;5081428;28;20249;-66
2021/12/28 06:22:10;;;;;;;32.30;24.70;;;;;;;2.09;84.81;99404.16;5081018;28;20224;-66
2021/12/28 06:24:35;;;;;;;34.20;24.77;;;;;;;1.79;85.75;99400.06;5080116;28;20172;-66
2021/12/28 06:27:01;;;;;;;33.53;23.93;;;;;;;1.73;86.17;99399.91;5081332;28;20594;-65
2021/12/28 06:29:26;;;;;;;32.40;23.73;;;;;;;2.14;86.32;99405.13;5082788;28;20504;-66
2021/12/28 06:31:51;;;;;;;32.23;25.53;;;;;;;2.13;85.84;99404.25;5083591;28;20183;-66
2021/12/28 06:34:17;;;;;;;33.33;24.20;;;;;;;2.17;85.65;99395.75;5082750;28;20177;-67
2021/12/28 06:36:43;;;;;;;33.07;24.33;;;;;;;2.06;86.17;99393.78;5080782;28;20183;-65
2021/12/28 06:39:09;;;;;;;32.67;23.30;;;;;;;1.87;86.94;99393.41;5080395;28;20179;-66
2021/12/28 06:41:34;;;;;;;32.77;24.20;;;;;;;1.93;87.23;99402.94;5081117;28;20501;-66
2021/12/28 06:44:00;;;;;;;33.57;24.43;;;;;;;1.70;88.01;99398.13;5080287;28;20207;-65
2021/12/28 06:46:25;;;;;;;31.67;23.03;;;;;;;1.51;88.59;99396.81;5080390;28;20614;-66
2021/12/28 06:48:50;;;;;;;31.57;23.00;;;;;;;1.89;88.04;99386.56;5080363;28;20200;-66
2021/12/28 06:51:15;;;;;;;36.90;25.90;;;;;;;2.01;86.95;99386.84;5080358;28;20173;-66
2021/12/28 06:53:41;;;;;;;32.97;24.27;;;;;;;1.61;88.46;99388.50;5079903;28;20228;-67
2021/12/28 06:56:08;;;;;;;33.30;25.63;;;;;;;1.81;87.96;99377.81;5080557;28;20447;-66
2021/12/28 06:58:33;;;;;;;38.73;25.83;;;;;;;1.76;88.97;99375.16;5080252;28;20461;-65
2021/12/28 07:00:58;;;;;;;31.87;24.60;;;;;;;1.90;88.63;99374.59;5080135;28;20418;-65
2021/12/28 07:03:24;;;;;;;35.27;25.40;;;;;;;1.81;88.55;99375.25;5079526;28;20193;-66
2021/12/28 07:05:49;;;;;;;30.50;23.13;;;;;;;1.71;89.80;99370.75;5079969;28;20601;-65
2021/12/28 07:08:15;;;;;;;41.27;26.47;;;;;;;1.61;89.60;99375.66;5079995;28;20204;-66
2021/12/28 07:10:41;;;;;;;37.00;25.77;;;;;;;1.68;89.62;99368.97;5080468;28;20530;-66
2021/12/28 07:13:07;;;;;;;35.57;24.30;;;;;;;1.71;90.06;99363.91;5079616;28;20208;-65
2021/12/28 07:15:32;;;;;;;32.23;23.00;;;;;;;1.61;89.73;99362.84;5080188;28;20738;-66
2021/12/28 07:17:58;;;;;;;35.47;26.33;;;;;;;1.61;89.97;99356.81;5079775;28;20169;-66
2021/12/28 07:20:23;;;;;;;35.00;23.73;;;;;;;1.68;89.79;99364.69;5079672;28;20222;-65
2021/12/28 07:22:48;;;;;;;31.67;23.43;;;;;;;1.68;89.99;99372.41;5079428;28;20289;-65
2021/12/28 07:25:14;;;;;;;37.93;26.80;;;;;;;1.71;89.94;99352.78;5080118;28;20165;-66
2021/12/28 07:27:39;;;;;;;36.07;26.97;;;;;;;1.87;89.73;99354.84;5079722;28;20546;-65
2021/12/28 07:30:07;;;;;;;38.73;28.03;;;;;;;1.81;89.35;99362.41;5079540;28;20199;-67
2021/12/28 07:32:33;;;;;;;36.77;25.60;;;;;;;1.93;88.45;99359.25;5079917;28;20230;-66
2021/12/28 07:34:58;;;;;;;41.57;27.97;;;;;;;1.90;88.19;99364.34;5079461;28;20415;-66
2021/12/28 07:37:24;;;;;;;39.53;26.07;;;;;;;2.01;88.33;99353.44;5079401;28;20165;-66
2021/12/28 07:39:50;;;;;;;35.43;26.00;;;;;;;1.80;89.21;99363.22;5079629;28;20460;-66
2021/12/28 07:42:17;;;;;;;41.43;27.40;;;;;;;1.91;89.20;99353.19;5079261;28;20443;-68
2021/12/28 07:44:42;;;;;;;35.03;25.67;;;;;;;2.29;87.91;99351.44;5079327;28;20419;-66
2021/12/28 07:47:08;;;;;;;41.63;26.83;;;;;;;1.96;88.40;99349.91;5079654;28;20433;-67
2021/12/28 07:49:33;;;;;;;41.43;27.33;;;;;;;1.87;89.03;99351.38;5080016;28;20302;-66
2021/12/28 07:51:58;;;;;;;36.87;27.17;;;;;;;1.75;88.70;99352.00;5079193;28;20228;-65
2021/12/28 07:54:24;;;;;;;42.47;28.77;;;;;;;1.89;88.86;99337.75;5079583;28;20477;-65
2021/12/28 07:56:49;;;;;;;40.70;27.47;;;;;;;1.86;88.72;99347.97;5079149;28;20176;-66
2021/12/28 07:59:14;;;;;;;37.63;26.47;;;;;;;2.08;88.44;99351.00;5077791;28;20200;-66
2021/12/28 08:01:40;;;;;;;42.20;27.97;;;;;;;1.83;88.94;99347.91;5079435;28;20201;-66
2021/12/28 08:04:05;;;;;;;41.23;29.43;;;;;;;1.91;88.72;99345.47;5078688;28;20180;-66
2021/12/28 08:06:31;;;;;;;41.33;28.37;;;;;;;1.80;89.61;99342.66;5078973;28;20177;-66
2021/12/28 08:08:56;;;;;;;42.40;27.97;;;;;;;1.78;89.04;99345.22;5079425;28;20168;-66
2021/12/28 08:11:25;;;;;;;45.23;28.03;;;;;;;1.96;89.23;99343.88;5078929;28;20172;-66
2021/12/28 08:13:50;;;;;;;41.53;28.53;;;;;;;2.16;87.38;99344.31;5078663;28;20173;-66
2021/12/28 08:16:16;;;;;;;40.60;29.00;;;;;;;1.95;89.15;99342.16;5079341;28;20411;-65
2021/12/28 08:18:41;;;;;;;44.87;28.70;;;;;;;2.00;88.75;99340.53;5078793;28;20208;-68
2021/12/28 08:21:06;;;;;;;40.90;27.63;;;;;;;1.86;89.21;99327.41;5077968;28;20176;-65
2021/12/28 08:23:32;;;;;;;43.43;28.30;;;;;;;1.95;88.52;99321.59;5078634;28;20479;-65
2021/12/28 08:25:57;;;;;;;42.63;28.40;;;;;;;2.01;87.95;99327.72;5078424;28;20177;-66
2021/12/28 08:28:22;;;;;;;44.03;30.20;;;;;;;2.04;88.17;99328.63;5078654;28;20173;-65
2021/12/28 08:30:48;;;;;;;46.87;30.70;;;;;;;2.11;87.50;99315.97;5079099;28;20414;-66
2021/12/28 08:33:13;;;;;;;43.20;28.50;;;;;;;1.82;88.59;99323.03;5080483;28;20197;-66
2021/12/28 08:35:40;;;;;;;41.63;28.63;;;;;;;1.84;88.78;99322.25;5078997;28;20256;-66
2021/12/28 08:38:07;;;;;;;40.00;28.30;;;;;;;1.86;89.13;99322.25;5080439;28;20165;-67
2021/12/28 08:40:32;;;;;;;43.60;29.43;;;;;;;2.01;89.13;99326.88;5079278;28;20422;-67
2021/12/28 08:42:58;;;;;;;47.47;30.53;;;;;;;1.88;89.50;99312.00;5078219;28;20466;-66
2021/12/28 08:45:24;;;;;;;44.30;30.57;;;;;;;1.95;89.62;99330.19;5079128;28;20169;-67
2021/12/28 08:47:50;;;;;;;42.77;29.33;;;;;;;2.27;88.22;99311.09;5078651;28;20181;-66
2021/12/28 08:50:17;;;;;;;48.73;30.77;;;;;;;2.18;87.79;99316.94;5078406;28;20434;-66
2021/12/28 08:52:42;;;;;;;46.00;29.47;;;;;;;1.99;88.92;99328.56;5078263;28;20545;-65
2021/12/28 08:55:08;;;;;;;42.43;29.37;;;;;;;2.03;89.03;99325.22;5078217;28;20465;-66
2021/12/28 08:57:33;;;;;;;42.03;30.00;;;;;;;2.09;88.36;99319.31;5078296;28;20527;-67
2021/12/28 08:59:59;;;;;;;49.50;30.53;;;;;;;2.04;88.56;99316.63;5078158;28;20173;-66
2021/12/28 09:02:24;;;;;;;45.40;30.53;;;;;;;2.16;88.45;99313.47;5077812;28;20207;-66
2021/12/28 09:04:49;;;;;;;44.63;31.00;;;;;;;2.18;88.15;99310.09;5078876;28;20169;-66
2021/12/28 09:07:16;;;;;;;44.73;31.07;;;;;;;2.19;88.33;99304.13;5078064;28;20169;-66
2021/12/28 09:09:42;;;;;;;51.87;30.77;;;;;;;2.08;88.87;99291.88;5077962;28;20251;-66
2021/12/28 09:12:08;;;;;;;49.73;30.53;;;;;;;2.08;88.06;99292.72;5081784;28;20785;-65
2021/12/28 09:14:34;;;;;;;47.70;30.43;;;;;;;2.00;88.88;99302.88;5082022;28;20513;-66
2021/12/28 09:16:59;;;;;;;43.23;28.83;;;;;;;2.09;89.61;99293.63;5082028;28;20169;-66
2021/12/28 09:19:25;;;;;;;47.77;31.77;;;;;;;1.78;90.44;99300.69;5082225;28;20173;-66
2021/12/28 09:21:50;;;;;;;52.00;33.03;;;;;;;2.14;88.71;99312.59;5088599;28;20177;-66
2021/12/28 09:24:15;;;;;;;51.07;32.70;;;;;;;2.15;89.29;99309.16;5088785;28;20172;-65
2021/12/28 09:26:41;;;;;;;52.80;32.10;;;;;;;1.98;88.83;99312.25;5085043;28;20173;-66
2021/12/28 09:29:06;;;;;;;48.40;30.20;;;;;;;2.13;88.74;99310.84;5082200;28;20180;-66
2021/12/28 09:31:33;;;;;;;49.67;31.07;;;;;;;2.12;88.90;99294.53;5081970;28;20165;-66
2021/12/28 09:33:58;;;;;;;51.43;32.53;;;;;;;2.21;88.99;99306.72;5082234;28;20169;-66
2021/12/28 09:36:23;;;;;;;49.93;32.27;;;;;;;2.11;89.41;99291.94;5081966;28;20503;-66
2021/12/28 09:38:49;;;;;;;52.30;34.00;;;;;;;2.33;88.06;99296.66;5081946;28;20177;-65
2021/12/28 09:41:14;;;;;;;49.13;32.70;;;;;;;2.13;88.66;99298.84;5082273;28;20180;-66
2021/12/28 09:43:40;;;;;;;58.73;34.43;;;;;;;2.19;88.90;99287.81;5081361;28;20201;-66
2021/12/28 09:46:07;;;;;;;48.30;32.60;;;;;;;2.25;88.88;99300.81;5081763;28;20211;-67
2021/12/28 09:48:33;;;;;;;51.47;32.30;;;;;;;2.16;88.70;99283.47;5081938;28;20745;-65
2021/12/28 09:51:00;;;;;;;55.73;35.27;;;;;;;2.43;87.87;99268.56;5080730;28;20403;-66
2021/12/28 09:53:25;;;;;;;52.93;33.90;;;;;;;2.16;88.83;99265.47;5081074;28;20466;-65
2021/12/28 09:55:51;;;;;;;64.93;34.67;;;;;;;2.34;87.35;99274.38;5081826;28;20435;-67
2021/12/28 09:58:16;;;;;;;52.73;35.50;;;;;;;2.30;88.05;99273.47;5081323;28;20263;-66
2021/12/28 10:00:41;;;;;;;67.07;34.93;;;;;;;2.35;88.05;99271.88;5081528;28;20483;-65
2021/12/28 10:03:07;;;;;;;54.93;35.47;;;;;;;2.36;87.54;99277.88;5081608;28;20225;-66
2021/12/28 10:05:33;;;;;;;57.20;34.93;;;;;;;2.13;89.08;99259.44;5081131;28;20172;-66
2021/12/28 10:08:00;;;;;;;66.03;36.80;;;;;;;1.95;88.61;99262.47;5081115;28;20173;-66
2021/12/28 10:10:46;;;;;;;63.50;33.93;;;;;;;2.34;88.22;99269.25;5081353;28;20490;-66
2021/12/28 10:13:20;;;;;;;56.47;34.07;;;;;;;2.17;88.66;99268.94;5080843;28;20426;-66
2021/12/28 10:15:47;;;;;;;54.17;35.50;;;;;;;2.45;87.88;99266.88;5080288;28;20451;-66
2021/12/28 10:18:13;;;;;;;55.73;34.90;;;;;;;2.79;86.58;99262.34;5080758;28;20502;-66
2021/12/28 10:20:46;;;;;;;53.97;34.10;;;;;;;2.60;86.50;99254.31;5080674;28;20421;-67
2021/12/28 10:23:17;;;;;;;51.80;34.23;;;;;;;2.50;88.29;99247.25;5080098;28;20197;-66
2021/12/28 10:26:05;;;;;;;54.57;35.03;;;;;;;2.63;87.08;99233.75;5081312;28;20415;-66
2021/12/28 10:28:33;;;;;;;65.33;34.27;;;;;;;2.66;86.70;99240.69;5080757;28;20411;-66
2021/12/28 10:31:04;;;;;;;58.63;36.43;;;;;;;2.48;87.66;99236.09;5080123;28;20419;-66
2021/12/28 10:33:33;;;;;;;59.57;35.90;;;;;;;2.78;86.21;99234.88;5079736;28;20421;-66
2021/12/28 10:36:07;;;;;;;60.13;31.37;;;;;;;2.13;87.40;99237.16;5080436;28;20415;-66
2021/12/28 10:38:37;;;;;;;61.33;35.20;;;;;;;2.16;88.69;99237.19;5080601;28;20441;-66
2021/12/28 10:41:10;;;;;;;58.40;35.97;;;;;;;2.49;87.95;99232.66;5081017;28;20805;-66
2021/12/28 10:43:39;;;;;;;62.20;35.80;;;;;;;2.24;90.09;99227.06;5080820;28;20462;-66
2021/12/28 10:46:19;;;;;;;59.80;37.23;;;;;;;2.54;88.87;99228.44;5080919;28;20464;-67
2021/12/28 10:48:50;;;;;;;62.97;34.50;;;;;;;2.51;86.83;99226.69;5082583;28;20423;-65
2021/12/28 10:51:18;;;;;;;60.60;35.20;;;;;;;2.18;88.85;99230.38;5082719;28;20403;-66
2021/12/28 10:54:06;;;;;;;70.37;39.10;;;;;;;2.52;87.84;99222.44;5079899;28;20879;-67
2021/12/28 10:56:54;;;;;;;62.83;37.50;;;;;;;2.61;87.36;99222.59;5080160;28;20722;-64
2021/12/28 10:59:22;;;;;;;68.33;36.47;;;;;;;2.56;88.43;99213.03;5080044;28;20472;-66
2021/12/28 11:01:48;;;;;;;62.20;37.00;;;;;;;2.52;88.71;99209.56;5081128;28;20502;-70
2021/12/28 11:04:14;;;;;;;65.90;35.80;;;;;;;2.40;88.85;99210.22;5087301;28;20451;-67
2021/12/28 11:06:45;;;;;;;68.30;37.67;;;;;;;2.31;89.60;99210.94;5083656;28;20454;-66
2021/12/28 11:09:18;;;;;;;62.37;37.67;;;;;;;2.08;88.83;99212.19;5085919;28;20411;-66
2021/12/28 11:11:44;;;;;;;62.97;35.13;;;;;;;2.31;89.22;99204.91;5080306;28;20681;-67
2021/12/28 11:14:16;;;;;;;62.00;38.00;;;;;;;2.45;88.88;99190.59;5079788;28;20407;-66
2021/12/28 11:16:43;;;;;;;62.83;37.60;;;;;;;2.35;88.82;99189.56;5079770;28;20403;-66
2021/12/28 11:19:09;;;;;;;63.97;36.60;;;;;;;2.52;89.08;99194.13;5078933;28;20454;-68
2021/12/28 11:21:39;;;;;;;63.40;36.87;;;;;;;2.64;87.59;99185.78;5080256;28;20422;-66